sensor_id;sensor_type;location;lat;lon;timestamp;P1;durP1;ratioP1;P2;durP2;ratioP2
4210;SDS011;2119;48.828;12.396;2022-07-30T00:02:26;6.57;;;6.07;;
4210;SDS011;2119;48.828;12.396;2022-07-30T00:07:26;6.18;;;5.88;;
4210;SDS011;2119;48.828;12.396;2022-07-30T00:12:26;6.80;;;6.23;;
4210;SDS011;2119;48.828;12.396;2022-07-30T00:17:26;7.20;;;6.70;;
4210;SDS011;2119;48.828;12.396;2022-07-30T00:22:27;6.67;;;6.17;;
4210;SDS011;2119;48.828;12.396;2022-07-30T00:27:27;6.70;;;6.20;;
4210;SDS011;2119;48.828;12.396;2022-07-30T00:32:27;7.17;;;6.60;;
4210;SDS011;2119;48.828;12.396;2022-07-30T00:37:27;7.30;;;6.80;;
4210;SDS011;2119;48.828;12.396;2022-07-30T00:42:41;7.33;;;6.83;;
4210;SDS011;2119;48.828;12.396;2022-07-30T00:47:41;6.87;;;6.47;;
4210;SDS011;2119;48.828;12.396;2022-07-30T00:52:42;7.00;;;6.43;;
4210;SDS011;2119;48.828;12.396;2022-07-30T00:57:42;6.50;;;6.10;;
4210;SDS011;2119;48.828;12.396;2022-07-30T01:02:43;7.00;;;6.50;;
4210;SDS011;2119;48.828;12.396;2022-07-30T01:07:43;6.40;;;6.00;;
4210;SDS011;2119;48.828;12.396;2022-07-30T01:12:44;7.07;;;6.47;;
4210;SDS011;2119;48.828;12.396;2022-07-30T01:17:45;6.00;;;5.60;;
4210;SDS011;2119;48.828;12.396;2022-07-30T01:22:58;7.10;;;6.50;;
4210;SDS011;2119;48.828;12.396;2022-07-30T01:28:05;6.30;;;5.90;;
4210;SDS011;2119;48.828;12.396;2022-07-30T01:33:06;6.93;;;6.43;;
4210;SDS011;2119;48.828;12.396;2022-07-30T01:38:07;6.80;;;6.40;;
4210;SDS011;2119;48.828;12.396;2022-07-30T01:43:10;7.27;;;6.80;;
4210;SDS011;2119;48.828;12.396;2022-07-30T01:48:11;7.67;;;6.97;;
4210;SDS011;2119;48.828;12.396;2022-07-30T01:53:16;8.20;;;7.50;;
4210;SDS011;2119;48.828;12.396;2022-07-30T01:58:17;7.40;;;6.80;;
4210;SDS011;2119;48.828;12.396;2022-07-30T02:03:18;8.67;;;7.67;;
4210;SDS011;2119;48.828;12.396;2022-07-30T02:08:21;8.40;;;7.68;;
4210;SDS011;2119;48.828;12.396;2022-07-30T02:13:25;8.77;;;8.00;;
4210;SDS011;2119;48.828;12.396;2022-07-30T02:18:38;7.43;;;6.93;;
4210;SDS011;2119;48.828;12.396;2022-07-30T02:23:43;7.73;;;7.10;;
4210;SDS011;2119;48.828;12.396;2022-07-30T02:28:44;8.80;;;8.10;;
4210;SDS011;2119;48.828;12.396;2022-07-30T02:33:47;7.80;;;7.20;;
4210;SDS011;2119;48.828;12.396;2022-07-30T02:38:48;8.00;;;7.50;;
4210;SDS011;2119;48.828;12.396;2022-07-30T02:43:50;8.40;;;7.77;;
4210;SDS011;2119;48.828;12.396;2022-07-30T02:48:51;9.10;;;8.40;;
4210;SDS011;2119;48.828;12.396;2022-07-30T02:53:52;8.13;;;7.53;;
4210;SDS011;2119;48.828;12.396;2022-07-30T02:58:53;8.03;;;7.33;;
4210;SDS011;2119;48.828;12.396;2022-07-30T03:03:54;8.33;;;7.63;;
4210;SDS011;2119;48.828;12.396;2022-07-30T03:08:55;8.10;;;7.47;;
4210;SDS011;2119;48.828;12.396;2022-07-30T03:13:56;8.43;;;7.70;;
4210;SDS011;2119;48.828;12.396;2022-07-30T03:18:56;8.53;;;7.93;;
4210;SDS011;2119;48.828;12.396;2022-07-30T03:23:58;12.23;;;11.03;;
4210;SDS011;2119;48.828;12.396;2022-07-30T03:29:03;14.43;;;12.63;;
4210;SDS011;2119;48.828;12.396;2022-07-30T03:34:04;13.90;;;12.50;;
4210;SDS011;2119;48.828;12.396;2022-07-30T03:39:04;15.93;;;14.40;;
4210;SDS011;2119;48.828;12.396;2022-07-30T03:44:06;18.43;;;16.27;;
4210;SDS011;2119;48.828;12.396;2022-07-30T03:49:07;20.23;;;17.17;;
4210;SDS011;2119;48.828;12.396;2022-07-30T03:54:08;23.70;;;18.53;;
4210;SDS011;2119;48.828;12.396;2022-07-30T03:59:12;23.03;;;20.07;;
4210;SDS011;2119;48.828;12.396;2022-07-30T04:04:12;23.70;;;20.37;;
4210;SDS011;2119;48.828;12.396;2022-07-30T04:09:12;24.40;;;21.80;;
4210;SDS011;2119;48.828;12.396;2022-07-30T04:14:13;29.27;;;23.03;;
4210;SDS011;2119;48.828;12.396;2022-07-30T04:24:39;29.13;;;23.33;;
4210;SDS011;2119;48.828;12.396;2022-07-30T04:29:41;26.77;;;22.00;;
4210;SDS011;2119;48.828;12.396;2022-07-30T04:34:48;25.73;;;22.20;;
4210;SDS011;2119;48.828;12.396;2022-07-30T04:39:48;22.67;;;20.27;;
4210;SDS011;2119;48.828;12.396;2022-07-30T04:44:53;23.30;;;20.20;;
4210;SDS011;2119;48.828;12.396;2022-07-30T04:49:53;22.10;;;19.90;;
4210;SDS011;2119;48.828;12.396;2022-07-30T04:54:55;21.67;;;19.43;;
4210;SDS011;2119;48.828;12.396;2022-07-30T04:59:57;19.47;;;17.67;;
4210;SDS011;2119;48.828;12.396;2022-07-30T05:04:57;19.80;;;18.00;;
4210;SDS011;2119;48.828;12.396;2022-07-30T05:09:58;20.10;;;18.17;;
4210;SDS011;2119;48.828;12.396;2022-07-30T05:14:58;16.77;;;15.20;;
4210;SDS011;2119;48.828;12.396;2022-07-30T05:19:58;17.37;;;15.63;;
4210;SDS011;2119;48.828;12.396;2022-07-30T05:24:59;17.02;;;15.43;;
4210;SDS011;2119;48.828;12.396;2022-07-30T05:29:59;17.23;;;15.68;;
4210;SDS011;2119;48.828;12.396;2022-07-30T05:34:59;17.50;;;15.90;;
4210;SDS011;2119;48.828;12.396;2022-07-30T05:39:59;18.33;;;15.87;;
4210;SDS011;2119;48.828;12.396;2022-07-30T05:45:00;16.90;;;15.35;;
4210;SDS011;2119;48.828;12.396;2022-07-30T05:50:00;17.03;;;15.30;;
4210;SDS011;2119;48.828;12.396;2022-07-30T05:55:00;16.33;;;14.93;;
4210;SDS011;2119;48.828;12.396;2022-07-30T06:00:01;14.20;;;13.00;;
4210;SDS011;2119;48.828;12.396;2022-07-30T06:05:02;14.30;;;12.90;;
4210;SDS011;2119;48.828;12.396;2022-07-30T06:10:03;15.43;;;13.90;;
4210;SDS011;2119;48.828;12.396;2022-07-30T06:15:03;13.83;;;12.50;;
4210;SDS011;2119;48.828;12.396;2022-07-30T06:20:04;12.83;;;11.73;;
4210;SDS011;2119;48.828;12.396;2022-07-30T06:25:05;12.33;;;11.23;;
4210;SDS011;2119;48.828;12.396;2022-07-30T06:30:06;13.17;;;12.07;;
4210;SDS011;2119;48.828;12.396;2022-07-30T06:35:06;13.20;;;12.10;;
4210;SDS011;2119;48.828;12.396;2022-07-30T06:40:07;12.57;;;11.47;;
4210;SDS011;2119;48.828;12.396;2022-07-30T06:45:07;12.57;;;11.47;;
4210;SDS011;2119;48.828;12.396;2022-07-30T06:50:08;12.90;;;11.77;;
4210;SDS011;2119;48.828;12.396;2022-07-30T06:55:08;12.33;;;10.93;;
4210;SDS011;2119;48.828;12.396;2022-07-30T07:00:09;11.53;;;10.53;;
4210;SDS011;2119;48.828;12.396;2022-07-30T07:05:09;12.17;;;11.10;;
4210;SDS011;2119;48.828;12.396;2022-07-30T07:10:10;11.63;;;10.70;;
4210;SDS011;2119;48.828;12.396;2022-07-30T07:15:10;10.97;;;10.17;;
4210;SDS011;2119;48.828;12.396;2022-07-30T07:20:10;10.27;;;9.37;;
4210;SDS011;2119;48.828;12.396;2022-07-30T07:25:10;9.60;;;8.85;;
4210;SDS011;2119;48.828;12.396;2022-07-30T07:30:11;10.63;;;9.73;;
4210;SDS011;2119;48.828;12.396;2022-07-30T07:35:11;9.10;;;8.50;;
4210;SDS011;2119;48.828;12.396;2022-07-30T07:40:12;9.53;;;8.77;;
4210;SDS011;2119;48.828;12.396;2022-07-30T07:45:14;9.53;;;8.80;;
4210;SDS011;2119;48.828;12.396;2022-07-30T07:50:15;9.90;;;9.10;;
4210;SDS011;2119;48.828;12.396;2022-07-30T07:55:15;9.80;;;9.10;;
4210;SDS011;2119;48.828;12.396;2022-07-30T08:00:16;8.05;;;7.35;;
4210;SDS011;2119;48.828;12.396;2022-07-30T08:05:18;7.77;;;7.20;;
4210;SDS011;2119;48.828;12.396;2022-07-30T08:10:19;7.30;;;6.80;;
4210;SDS011;2119;48.828;12.396;2022-07-30T08:15:19;7.07;;;6.57;;
4210;SDS011;2119;48.828;12.396;2022-07-30T08:20:19;7.40;;;7.00;;
4210;SDS011;2119;48.828;12.396;2022-07-30T08:25:21;7.07;;;6.67;;
4210;SDS011;2119;48.828;12.396;2022-07-30T08:30:22;9.30;;;8.50;;
4210;SDS011;2119;48.828;12.396;2022-07-30T08:35:22;6.90;;;6.37;;
4210;SDS011;2119;48.828;12.396;2022-07-30T08:40:24;9.33;;;8.63;;
4210;SDS011;2119;48.828;12.396;2022-07-30T08:45:24;9.07;;;8.40;;
4210;SDS011;2119;48.828;12.396;2022-07-30T08:50:25;8.27;;;7.73;;
4210;SDS011;2119;48.828;12.396;2022-07-30T08:55:25;8.57;;;7.77;;
4210;SDS011;2119;48.828;12.396;2022-07-30T09:00:26;9.00;;;8.27;;
4210;SDS011;2119;48.828;12.396;2022-07-30T09:05:26;8.23;;;7.68;;
4210;SDS011;2119;48.828;12.396;2022-07-30T09:10:26;7.03;;;6.53;;
4210;SDS011;2119;48.828;12.396;2022-07-30T09:15:26;8.17;;;7.67;;
4210;SDS011;2119;48.828;12.396;2022-07-30T09:20:28;7.60;;;7.10;;
4210;SDS011;2119;48.828;12.396;2022-07-30T09:35:52;6.20;;;5.90;;
4210;SDS011;2119;48.828;12.396;2022-07-30T09:40:55;5.50;;;5.20;;
4210;SDS011;2119;48.828;12.396;2022-07-30T09:45:56;5.87;;;5.57;;
4210;SDS011;2119;48.828;12.396;2022-07-30T09:50:57;5.73;;;5.23;;
4210;SDS011;2119;48.828;12.396;2022-07-30T09:55:58;5.77;;;5.47;;
4210;SDS011;2119;48.828;12.396;2022-07-30T10:00:58;5.50;;;5.20;;
4210;SDS011;2119;48.828;12.396;2022-07-30T10:05:59;6.03;;;5.63;;
4210;SDS011;2119;48.828;12.396;2022-07-30T10:10:59;5.87;;;5.47;;
4210;SDS011;2119;48.828;12.396;2022-07-30T10:16:00;4.85;;;4.65;;
4210;SDS011;2119;48.828;12.396;2022-07-30T10:21:00;6.33;;;5.73;;
4210;SDS011;2119;48.828;12.396;2022-07-30T10:26:01;5.27;;;4.97;;
4210;SDS011;2119;48.828;12.396;2022-07-30T10:31:01;5.23;;;5.03;;
4210;SDS011;2119;48.828;12.396;2022-07-30T10:36:02;5.40;;;5.00;;
4210;SDS011;2119;48.828;12.396;2022-07-30T10:51:49;7.37;;;6.90;;
4210;SDS011;2119;48.828;12.396;2022-07-30T10:57:02;6.83;;;6.43;;
4210;SDS011;2119;48.828;12.396;2022-07-30T11:02:08;8.23;;;7.73;;
4210;SDS011;2119;48.828;12.396;2022-07-30T11:13:04;8.30;;;7.63;;
4210;SDS011;2119;48.828;12.396;2022-07-30T11:18:02;6.87;;;6.30;;
4210;SDS011;2119;48.828;12.396;2022-07-30T11:23:11;6.07;;;5.67;;
4210;SDS011;2119;48.828;12.396;2022-07-30T11:28:39;6.23;;;5.50;;
4210;SDS011;2119;48.828;12.396;2022-07-30T11:33:39;5.90;;;5.50;;
4210;SDS011;2119;48.828;12.396;2022-07-30T11:44:28;4.40;;;4.10;;
4210;SDS011;2119;48.828;12.396;2022-07-30T11:49:33;4.77;;;4.57;;
4210;SDS011;2119;48.828;12.396;2022-07-30T11:54:50;3.97;;;3.67;;
4210;SDS011;2119;48.828;12.396;2022-07-30T11:59:54;5.50;;;5.20;;
4210;SDS011;2119;48.828;12.396;2022-07-30T12:04:55;6.00;;;4.47;;
4210;SDS011;2119;48.828;12.396;2022-07-30T12:10:11;5.30;;;4.90;;
4210;SDS011;2119;48.828;12.396;2022-07-30T12:15:27;6.30;;;5.70;;
4210;SDS011;2119;48.828;12.396;2022-07-30T12:20:28;9.30;;;8.50;;
4210;SDS011;2119;48.828;12.396;2022-07-30T12:25:29;6.23;;;5.90;;
4210;SDS011;2119;48.828;12.396;2022-07-30T12:30:29;5.50;;;5.07;;
4210;SDS011;2119;48.828;12.396;2022-07-30T12:35:46;4.95;;;4.65;;
4210;SDS011;2119;48.828;12.396;2022-07-30T12:45:56;5.50;;;5.20;;
4210;SDS011;2119;48.828;12.396;2022-07-30T12:51:06;5.83;;;5.53;;
4210;SDS011;2119;48.828;12.396;2022-07-30T12:56:16;5.73;;;5.43;;
4210;SDS011;2119;48.828;12.396;2022-07-30T13:01:17;5.63;;;5.30;;
4210;SDS011;2119;48.828;12.396;2022-07-30T13:06:18;6.07;;;5.67;;
4210;SDS011;2119;48.828;12.396;2022-07-30T13:11:20;5.40;;;5.10;;
4210;SDS011;2119;48.828;12.396;2022-07-30T13:16:20;4.13;;;3.93;;
4210;SDS011;2119;48.828;12.396;2022-07-30T13:21:23;4.80;;;4.60;;
4210;SDS011;2119;48.828;12.396;2022-07-30T13:26:23;4.30;;;4.10;;
4210;SDS011;2119;48.828;12.396;2022-07-30T13:31:23;4.50;;;4.30;;
4210;SDS011;2119;48.828;12.396;2022-07-30T13:36:24;4.53;;;4.33;;
4210;SDS011;2119;48.828;12.396;2022-07-30T13:41:24;5.10;;;4.50;;
4210;SDS011;2119;48.828;12.396;2022-07-30T13:46:24;4.33;;;4.03;;
4210;SDS011;2119;48.828;12.396;2022-07-30T13:51:25;4.77;;;3.80;;
4210;SDS011;2119;48.828;12.396;2022-07-30T13:56:25;3.90;;;3.70;;
4210;SDS011;2119;48.828;12.396;2022-07-30T14:01:25;4.17;;;3.97;;
4210;SDS011;2119;48.828;12.396;2022-07-30T14:06:26;3.57;;;3.37;;
4210;SDS011;2119;48.828;12.396;2022-07-30T14:11:26;4.90;;;4.53;;
4210;SDS011;2119;48.828;12.396;2022-07-30T14:16:26;4.20;;;3.90;;
4210;SDS011;2119;48.828;12.396;2022-07-30T14:21:26;4.60;;;4.20;;
4210;SDS011;2119;48.828;12.396;2022-07-30T14:26:27;4.67;;;3.77;;
4210;SDS011;2119;48.828;12.396;2022-07-30T14:31:28;4.00;;;3.80;;
4210;SDS011;2119;48.828;12.396;2022-07-30T14:36:28;3.93;;;3.73;;
4210;SDS011;2119;48.828;12.396;2022-07-30T14:41:29;5.60;;;4.10;;
4210;SDS011;2119;48.828;12.396;2022-07-30T14:46:30;4.57;;;4.37;;
4210;SDS011;2119;48.828;12.396;2022-07-30T14:51:30;4.20;;;4.00;;
4210;SDS011;2119;48.828;12.396;2022-07-30T14:56:30;4.77;;;4.57;;
4210;SDS011;2119;48.828;12.396;2022-07-30T15:01:31;4.63;;;4.25;;
4210;SDS011;2119;48.828;12.396;2022-07-30T15:06:31;4.97;;;3.80;;
4210;SDS011;2119;48.828;12.396;2022-07-30T15:11:31;3.30;;;3.00;;
4210;SDS011;2119;48.828;12.396;2022-07-30T15:16:31;3.90;;;3.70;;
4210;SDS011;2119;48.828;12.396;2022-07-30T15:21:32;4.50;;;4.10;;
4210;SDS011;2119;48.828;12.396;2022-07-30T15:26:32;4.03;;;3.83;;
4210;SDS011;2119;48.828;12.396;2022-07-30T15:31:32;4.20;;;4.00;;
4210;SDS011;2119;48.828;12.396;2022-07-30T15:36:33;4.00;;;3.80;;
4210;SDS011;2119;48.828;12.396;2022-07-30T15:41:33;3.20;;;3.10;;
4210;SDS011;2119;48.828;12.396;2022-07-30T15:46:33;3.90;;;3.70;;
4210;SDS011;2119;48.828;12.396;2022-07-30T15:51:33;3.87;;;3.67;;
4210;SDS011;2119;48.828;12.396;2022-07-30T15:56:34;3.83;;;3.63;;
4210;SDS011;2119;48.828;12.396;2022-07-30T16:01:35;4.00;;;3.80;;
4210;SDS011;2119;48.828;12.396;2022-07-30T16:06:35;4.00;;;3.80;;
4210;SDS011;2119;48.828;12.396;2022-07-30T16:11:36;3.90;;;3.60;;
4210;SDS011;2119;48.828;12.396;2022-07-30T16:16:36;3.63;;;3.43;;
4210;SDS011;2119;48.828;12.396;2022-07-30T16:21:36;4.20;;;4.00;;
4210;SDS011;2119;48.828;12.396;2022-07-30T16:26:36;3.92;;;3.72;;
4210;SDS011;2119;48.828;12.396;2022-07-30T16:31:37;4.10;;;3.80;;
4210;SDS011;2119;48.828;12.396;2022-07-30T16:36:40;4.03;;;3.73;;
4210;SDS011;2119;48.828;12.396;2022-07-30T16:41:41;3.75;;;3.50;;
4210;SDS011;2119;48.828;12.396;2022-07-30T16:46:41;3.70;;;3.50;;
4210;SDS011;2119;48.828;12.396;2022-07-30T16:51:41;5.70;;;4.00;;
4210;SDS011;2119;48.828;12.396;2022-07-30T16:56:42;3.90;;;3.70;;
4210;SDS011;2119;48.828;12.396;2022-07-30T17:01:43;4.27;;;3.97;;
4210;SDS011;2119;48.828;12.396;2022-07-30T17:06:43;4.25;;;3.95;;
4210;SDS011;2119;48.828;12.396;2022-07-30T17:11:43;4.60;;;4.30;;
4210;SDS011;2119;48.828;12.396;2022-07-30T17:16:44;4.30;;;4.10;;
4210;SDS011;2119;48.828;12.396;2022-07-30T17:21:44;5.30;;;3.67;;
4210;SDS011;2119;48.828;12.396;2022-07-30T17:26:44;4.53;;;4.00;;
4210;SDS011;2119;48.828;12.396;2022-07-30T17:31:45;3.83;;;3.53;;
4210;SDS011;2119;48.828;12.396;2022-07-30T17:36:46;4.07;;;3.87;;
4210;SDS011;2119;48.828;12.396;2022-07-30T17:41:47;3.67;;;3.47;;
4210;SDS011;2119;48.828;12.396;2022-07-30T17:46:47;3.77;;;3.53;;
4210;SDS011;2119;48.828;12.396;2022-07-30T17:51:47;4.20;;;3.90;;
4210;SDS011;2119;48.828;12.396;2022-07-30T17:56:48;4.30;;;4.00;;
4210;SDS011;2119;48.828;12.396;2022-07-30T18:01:48;4.15;;;3.95;;
4210;SDS011;2119;48.828;12.396;2022-07-30T18:06:49;4.10;;;3.90;;
4210;SDS011;2119;48.828;12.396;2022-07-30T18:11:50;4.80;;;4.50;;
4210;SDS011;2119;48.828;12.396;2022-07-30T18:16:50;4.50;;;4.20;;
4210;SDS011;2119;48.828;12.396;2022-07-30T18:21:51;4.27;;;3.97;;
4210;SDS011;2119;48.828;12.396;2022-07-30T18:26:51;4.83;;;4.43;;
4210;SDS011;2119;48.828;12.396;2022-07-30T18:31:51;3.97;;;3.77;;
4210;SDS011;2119;48.828;12.396;2022-07-30T18:36:52;4.73;;;4.33;;
4210;SDS011;2119;48.828;12.396;2022-07-30T18:41:52;4.40;;;4.07;;
4210;SDS011;2119;48.828;12.396;2022-07-30T18:46:52;4.13;;;3.83;;
4210;SDS011;2119;48.828;12.396;2022-07-30T18:51:53;4.30;;;4.00;;
4210;SDS011;2119;48.828;12.396;2022-07-30T18:56:54;4.33;;;4.03;;
4210;SDS011;2119;48.828;12.396;2022-07-30T19:01:54;4.20;;;4.00;;
4210;SDS011;2119;48.828;12.396;2022-07-30T19:06:55;4.83;;;4.60;;
4210;SDS011;2119;48.828;12.396;2022-07-30T19:11:55;4.50;;;4.30;;
4210;SDS011;2119;48.828;12.396;2022-07-30T19:16:55;4.75;;;4.45;;
4210;SDS011;2119;48.828;12.396;2022-07-30T19:21:56;4.73;;;4.37;;
4210;SDS011;2119;48.828;12.396;2022-07-30T19:26:56;4.90;;;4.50;;
4210;SDS011;2119;48.828;12.396;2022-07-30T19:31:56;4.53;;;4.32;;
4210;SDS011;2119;48.828;12.396;2022-07-30T19:36:56;5.00;;;4.55;;
4210;SDS011;2119;48.828;12.396;2022-07-30T19:41:57;4.87;;;4.67;;
4210;SDS011;2119;48.828;12.396;2022-07-30T19:46:58;6.50;;;4.50;;
4210;SDS011;2119;48.828;12.396;2022-07-30T19:51:58;5.37;;;5.07;;
4210;SDS011;2119;48.828;12.396;2022-07-30T19:56:58;5.00;;;4.70;;
4210;SDS011;2119;48.828;12.396;2022-07-30T20:01:59;5.70;;;5.28;;
4210;SDS011;2119;48.828;12.396;2022-07-30T20:06:59;5.10;;;4.80;;
4210;SDS011;2119;48.828;12.396;2022-07-30T20:11:59;5.60;;;5.30;;
4210;SDS011;2119;48.828;12.396;2022-07-30T20:16:59;4.80;;;4.60;;
4210;SDS011;2119;48.828;12.396;2022-07-30T20:22:00;4.80;;;4.50;;
4210;SDS011;2119;48.828;12.396;2022-07-30T20:27:00;5.17;;;4.87;;
4210;SDS011;2119;48.828;12.396;2022-07-30T20:32:01;4.90;;;4.50;;
4210;SDS011;2119;48.828;12.396;2022-07-30T20:37:02;5.37;;;5.03;;
4210;SDS011;2119;48.828;12.396;2022-07-30T20:42:03;5.57;;;5.27;;
4210;SDS011;2119;48.828;12.396;2022-07-30T20:47:12;5.53;;;5.23;;
4210;SDS011;2119;48.828;12.396;2022-07-30T20:52:17;5.63;;;5.13;;
4210;SDS011;2119;48.828;12.396;2022-07-30T20:57:17;5.63;;;5.20;;
4210;SDS011;2119;48.828;12.396;2022-07-30T21:02:19;5.57;;;5.17;;
4210;SDS011;2119;48.828;12.396;2022-07-30T21:07:19;5.90;;;5.60;;
4210;SDS011;2119;48.828;12.396;2022-07-30T21:12:19;7.77;;;7.20;;
4210;SDS011;2119;48.828;12.396;2022-07-30T21:17:20;6.60;;;6.20;;
4210;SDS011;2119;48.828;12.396;2022-07-30T21:22:21;6.20;;;5.80;;
4210;SDS011;2119;48.828;12.396;2022-07-30T21:27:21;6.53;;;6.03;;
4210;SDS011;2119;48.828;12.396;2022-07-30T21:32:23;5.80;;;5.40;;
4210;SDS011;2119;48.828;12.396;2022-07-30T21:37:24;8.23;;;7.63;;
4210;SDS011;2119;48.828;12.396;2022-07-30T21:42:25;8.17;;;7.47;;
4210;SDS011;2119;48.828;12.396;2022-07-30T21:47:26;6.50;;;6.10;;
4210;SDS011;2119;48.828;12.396;2022-07-30T21:52:26;7.47;;;7.07;;
4210;SDS011;2119;48.828;12.396;2022-07-30T21:57:28;8.60;;;6.73;;
4210;SDS011;2119;48.828;12.396;2022-07-30T22:02:28;8.50;;;7.60;;
4210;SDS011;2119;48.828;12.396;2022-07-30T22:07:29;6.63;;;6.32;;
4210;SDS011;2119;48.828;12.396;2022-07-30T22:12:29;6.93;;;6.53;;
4210;SDS011;2119;48.828;12.396;2022-07-30T22:17:29;7.20;;;6.77;;
4210;SDS011;2119;48.828;12.396;2022-07-30T22:22:30;7.33;;;6.83;;
4210;SDS011;2119;48.828;12.396;2022-07-30T22:27:30;9.48;;;7.72;;
4210;SDS011;2119;48.828;12.396;2022-07-30T22:32:30;8.07;;;7.30;;
4210;SDS011;2119;48.828;12.396;2022-07-30T22:37:30;7.53;;;7.03;;
4210;SDS011;2119;48.828;12.396;2022-07-30T22:42:31;6.93;;;6.38;;
4210;SDS011;2119;48.828;12.396;2022-07-30T22:47:31;8.37;;;7.67;;
4210;SDS011;2119;48.828;12.396;2022-07-30T22:52:37;8.90;;;8.30;;
4210;SDS011;2119;48.828;12.396;2022-07-30T22:57:37;8.47;;;7.97;;
4210;SDS011;2119;48.828;12.396;2022-07-30T23:02:38;7.80;;;7.20;;
4210;SDS011;2119;48.828;12.396;2022-07-30T23:07:39;8.53;;;7.90;;
4210;SDS011;2119;48.828;12.396;2022-07-30T23:12:40;10.13;;;9.07;;
4210;SDS011;2119;48.828;12.396;2022-07-30T23:17:41;9.80;;;8.80;;
4210;SDS011;2119;48.828;12.396;2022-07-30T23:22:43;9.50;;;8.80;;
4210;SDS011;2119;48.828;12.396;2022-07-30T23:27:43;9.60;;;8.90;;
4210;SDS011;2119;48.828;12.396;2022-07-30T23:32:46;9.80;;;9.07;;
4210;SDS011;2119;48.828;12.396;2022-07-30T23:37:46;10.57;;;9.77;;
4210;SDS011;2119;48.828;12.396;2022-07-30T23:42:46;11.27;;;10.47;;
4210;SDS011;2119;48.828;12.396;2022-07-30T23:47:49;10.50;;;9.60;;
4210;SDS011;2119;48.828;12.396;2022-07-30T23:52:50;11.17;;;10.00;;
4210;SDS011;2119;48.828;12.396;2022-07-30T23:57:50;10.80;;;9.75;;
